sensor_id;sensor_type;location;lat;lon;timestamp;P1;durP1;ratioP1;P2;durP2;ratioP2
75470;SDS011;64051;46.320;48.028;2022-10-16T00:01:24;3.28;;;1.85;;
75470;SDS011;64051;46.320;48.028;2022-10-16T00:03:52;4.95;;;2.22;;
75470;SDS011;64051;46.320;48.028;2022-10-16T00:06:19;9.02;;;2.70;;
75470;SDS011;64051;46.320;48.028;2022-10-16T00:08:46;4.75;;;2.08;;
75470;SDS011;64051;46.320;48.028;2022-10-16T00:11:20;4.20;;;2.05;;
75470;SDS011;64051;46.320;48.028;2022-10-16T00:13:50;4.97;;;2.05;;
75470;SDS011;64051;46.320;48.028;2022-10-16T00:16:19;5.65;;;2.30;;
75470;SDS011;64051;46.320;48.028;2022-10-16T00:18:45;5.32;;;2.45;;
75470;SDS011;64051;46.320;48.028;2022-10-16T00:21:16;5.40;;;2.13;;
75470;SDS011;64051;46.320;48.028;2022-10-16T00:23:43;5.53;;;2.10;;
75470;SDS011;64051;46.320;48.028;2022-10-16T00:26:11;5.75;;;2.17;;
75470;SDS011;64051;46.320;48.028;2022-10-16T00:28:39;4.30;;;2.10;;
75470;SDS011;64051;46.320;48.028;2022-10-16T00:31:06;4.40;;;2.05;;
75470;SDS011;64051;46.320;48.028;2022-10-16T00:33:34;5.20;;;2.45;;
75470;SDS011;64051;46.320;48.028;2022-10-16T00:36:01;3.88;;;2.00;;
75470;SDS011;64051;46.320;48.028;2022-10-16T00:38:28;6.03;;;2.38;;
75470;SDS011;64051;46.320;48.028;2022-10-16T00:40:54;4.90;;;2.10;;
75470;SDS011;64051;46.320;48.028;2022-10-16T00:43:35;5.68;;;2.08;;
75470;SDS011;64051;46.320;48.028;2022-10-16T00:48:48;4.55;;;1.92;;
75470;SDS011;64051;46.320;48.028;2022-10-16T00:51:18;5.95;;;2.40;;
75470;SDS011;64051;46.320;48.028;2022-10-16T00:53:47;7.43;;;2.40;;
75470;SDS011;64051;46.320;48.028;2022-10-16T00:56:14;3.90;;;2.05;;
75470;SDS011;64051;46.320;48.028;2022-10-16T00:58:40;5.43;;;2.30;;
75470;SDS011;64051;46.320;48.028;2022-10-16T01:01:06;9.93;;;2.55;;
75470;SDS011;64051;46.320;48.028;2022-10-16T01:03:33;6.93;;;2.40;;
75470;SDS011;64051;46.320;48.028;2022-10-16T01:08:43;6.43;;;2.50;;
75470;SDS011;64051;46.320;48.028;2022-10-16T01:14:27;4.18;;;2.20;;
75470;SDS011;64051;46.320;48.028;2022-10-16T01:17:06;4.90;;;2.20;;
75470;SDS011;64051;46.320;48.028;2022-10-16T01:22:33;6.00;;;2.50;;
75470;SDS011;64051;46.320;48.028;2022-10-16T01:28:28;6.07;;;2.58;;
75470;SDS011;64051;46.320;48.028;2022-10-16T01:31:02;4.68;;;2.38;;
75470;SDS011;64051;46.320;48.028;2022-10-16T01:33:30;5.68;;;2.42;;
75470;SDS011;64051;46.320;48.028;2022-10-16T01:36:25;5.20;;;2.50;;
75470;SDS011;64051;46.320;48.028;2022-10-16T01:38:59;4.32;;;2.15;;
75470;SDS011;64051;46.320;48.028;2022-10-16T01:41:31;4.85;;;2.33;;
75470;SDS011;64051;46.320;48.028;2022-10-16T01:46:34;6.80;;;2.90;;
75470;SDS011;64051;46.320;48.028;2022-10-16T01:49:03;5.97;;;2.88;;
75470;SDS011;64051;46.320;48.028;2022-10-16T01:51:30;5.53;;;2.63;;
75470;SDS011;64051;46.320;48.028;2022-10-16T01:53:59;8.30;;;3.05;;
75470;SDS011;64051;46.320;48.028;2022-10-16T01:56:27;5.85;;;2.70;;
75470;SDS011;64051;46.320;48.028;2022-10-16T01:58:59;6.15;;;2.60;;
75470;SDS011;64051;46.320;48.028;2022-10-16T02:01:33;7.88;;;2.60;;
75470;SDS011;64051;46.320;48.028;2022-10-16T02:04:03;5.80;;;2.63;;
75470;SDS011;64051;46.320;48.028;2022-10-16T02:06:34;6.60;;;2.47;;
75470;SDS011;64051;46.320;48.028;2022-10-16T02:09:01;5.85;;;2.45;;
75470;SDS011;64051;46.320;48.028;2022-10-16T02:11:33;6.25;;;2.55;;
75470;SDS011;64051;46.320;48.028;2022-10-16T02:14:04;6.40;;;3.00;;
75470;SDS011;64051;46.320;48.028;2022-10-16T02:16:41;6.50;;;2.67;;
75470;SDS011;64051;46.320;48.028;2022-10-16T02:19:13;6.28;;;2.78;;
75470;SDS011;64051;46.320;48.028;2022-10-16T02:21:47;5.40;;;2.22;;
75470;SDS011;64051;46.320;48.028;2022-10-16T02:27:28;8.05;;;2.92;;
75470;SDS011;64051;46.320;48.028;2022-10-16T02:32:45;5.68;;;2.40;;
75470;SDS011;64051;46.320;48.028;2022-10-16T02:35:15;6.28;;;2.50;;
75470;SDS011;64051;46.320;48.028;2022-10-16T02:37:43;7.40;;;2.80;;
75470;SDS011;64051;46.320;48.028;2022-10-16T02:40:11;5.45;;;2.67;;
75470;SDS011;64051;46.320;48.028;2022-10-16T02:42:38;6.22;;;2.83;;
75470;SDS011;64051;46.320;48.028;2022-10-16T02:45:06;6.80;;;2.70;;
75470;SDS011;64051;46.320;48.028;2022-10-16T02:47:33;7.47;;;3.13;;
75470;SDS011;64051;46.320;48.028;2022-10-16T02:49:59;6.97;;;3.20;;
75470;SDS011;64051;46.320;48.028;2022-10-16T02:52:25;5.88;;;2.80;;
75470;SDS011;64051;46.320;48.028;2022-10-16T02:54:51;7.97;;;2.90;;
75470;SDS011;64051;46.320;48.028;2022-10-16T02:57:17;8.45;;;2.95;;
75470;SDS011;64051;46.320;48.028;2022-10-16T02:59:44;6.25;;;2.75;;
75470;SDS011;64051;46.320;48.028;2022-10-16T03:02:10;7.18;;;2.80;;
75470;SDS011;64051;46.320;48.028;2022-10-16T03:04:37;4.93;;;2.42;;
75470;SDS011;64051;46.320;48.028;2022-10-16T03:07:03;6.00;;;2.72;;
75470;SDS011;64051;46.320;48.028;2022-10-16T03:09:29;6.53;;;3.00;;
75470;SDS011;64051;46.320;48.028;2022-10-16T03:11:55;7.53;;;3.28;;
75470;SDS011;64051;46.320;48.028;2022-10-16T03:14:21;7.70;;;3.25;;
75470;SDS011;64051;46.320;48.028;2022-10-16T03:16:47;7.53;;;3.47;;
75470;SDS011;64051;46.320;48.028;2022-10-16T03:19:13;7.25;;;3.42;;
75470;SDS011;64051;46.320;48.028;2022-10-16T03:21:39;6.47;;;3.03;;
75470;SDS011;64051;46.320;48.028;2022-10-16T03:24:05;7.95;;;3.63;;
75470;SDS011;64051;46.320;48.028;2022-10-16T03:26:31;6.95;;;3.25;;
75470;SDS011;64051;46.320;48.028;2022-10-16T03:28:57;7.90;;;2.90;;
75470;SDS011;64051;46.320;48.028;2022-10-16T03:31:23;7.30;;;2.67;;
75470;SDS011;64051;46.320;48.028;2022-10-16T03:33:48;6.80;;;3.10;;
75470;SDS011;64051;46.320;48.028;2022-10-16T03:36:14;5.15;;;2.55;;
75470;SDS011;64051;46.320;48.028;2022-10-16T03:38:40;7.35;;;3.45;;
75470;SDS011;64051;46.320;48.028;2022-10-16T03:41:06;6.72;;;3.08;;
75470;SDS011;64051;46.320;48.028;2022-10-16T03:43:33;6.32;;;2.92;;
75470;SDS011;64051;46.320;48.028;2022-10-16T03:45:59;6.47;;;2.78;;
75470;SDS011;64051;46.320;48.028;2022-10-16T03:48:25;6.65;;;2.78;;
75470;SDS011;64051;46.320;48.028;2022-10-16T03:50:51;8.68;;;3.60;;
75470;SDS011;64051;46.320;48.028;2022-10-16T03:53:17;7.32;;;3.28;;
75470;SDS011;64051;46.320;48.028;2022-10-16T03:55:43;8.05;;;3.83;;
75470;SDS011;64051;46.320;48.028;2022-10-16T03:58:09;9.75;;;3.40;;
75470;SDS011;64051;46.320;48.028;2022-10-16T04:00:36;6.40;;;3.10;;
75470;SDS011;64051;46.320;48.028;2022-10-16T04:03:06;6.95;;;3.13;;
75470;SDS011;64051;46.320;48.028;2022-10-16T04:05:31;7.60;;;3.33;;
75470;SDS011;64051;46.320;48.028;2022-10-16T04:07:57;7.75;;;3.47;;
75470;SDS011;64051;46.320;48.028;2022-10-16T04:10:23;8.65;;;3.33;;
75470;SDS011;64051;46.320;48.028;2022-10-16T04:12:49;8.00;;;3.60;;
75470;SDS011;64051;46.320;48.028;2022-10-16T04:15:15;6.40;;;2.97;;
75470;SDS011;64051;46.320;48.028;2022-10-16T04:17:41;8.55;;;3.65;;
75470;SDS011;64051;46.320;48.028;2022-10-16T04:20:07;7.43;;;3.40;;
75470;SDS011;64051;46.320;48.028;2022-10-16T04:22:36;7.80;;;3.42;;
75470;SDS011;64051;46.320;48.028;2022-10-16T04:25:02;8.60;;;3.40;;
75470;SDS011;64051;46.320;48.028;2022-10-16T04:27:28;8.73;;;3.38;;
75470;SDS011;64051;46.320;48.028;2022-10-16T04:29:57;7.85;;;3.55;;
75470;SDS011;64051;46.320;48.028;2022-10-16T04:32:23;9.18;;;3.40;;
75470;SDS011;64051;46.320;48.028;2022-10-16T04:34:49;8.00;;;3.50;;
75470;SDS011;64051;46.320;48.028;2022-10-16T04:37:15;8.15;;;3.55;;
75470;SDS011;64051;46.320;48.028;2022-10-16T04:39:41;7.15;;;3.22;;
75470;SDS011;64051;46.320;48.028;2022-10-16T04:42:11;8.35;;;3.10;;
75470;SDS011;64051;46.320;48.028;2022-10-16T04:44:37;8.05;;;3.40;;
75470;SDS011;64051;46.320;48.028;2022-10-16T04:47:03;5.90;;;2.70;;
75470;SDS011;64051;46.320;48.028;2022-10-16T04:49:30;6.50;;;2.85;;
75470;SDS011;64051;46.320;48.028;2022-10-16T04:51:56;8.45;;;3.28;;
75470;SDS011;64051;46.320;48.028;2022-10-16T04:54:22;6.72;;;3.03;;
75470;SDS011;64051;46.320;48.028;2022-10-16T04:56:54;6.85;;;3.10;;
75470;SDS011;64051;46.320;48.028;2022-10-16T04:59:32;7.78;;;3.67;;
75470;SDS011;64051;46.320;48.028;2022-10-16T05:01:58;7.03;;;3.20;;
75470;SDS011;64051;46.320;48.028;2022-10-16T05:04:24;6.80;;;3.55;;
75470;SDS011;64051;46.320;48.028;2022-10-16T05:06:53;8.60;;;3.50;;
75470;SDS011;64051;46.320;48.028;2022-10-16T05:09:18;8.32;;;3.88;;
75470;SDS011;64051;46.320;48.028;2022-10-16T05:11:44;6.30;;;2.85;;
75470;SDS011;64051;46.320;48.028;2022-10-16T05:14:10;7.13;;;3.38;;
75470;SDS011;64051;46.320;48.028;2022-10-16T05:16:36;6.70;;;3.25;;
75470;SDS011;64051;46.320;48.028;2022-10-16T05:19:02;7.18;;;3.20;;
75470;SDS011;64051;46.320;48.028;2022-10-16T05:21:29;8.13;;;3.33;;
75470;SDS011;64051;46.320;48.028;2022-10-16T05:24:01;5.97;;;2.85;;
75470;SDS011;64051;46.320;48.028;2022-10-16T05:26:27;8.05;;;2.75;;
75470;SDS011;64051;46.320;48.028;2022-10-16T05:28:55;7.18;;;3.30;;
75470;SDS011;64051;46.320;48.028;2022-10-16T05:31:30;6.10;;;2.67;;
75470;SDS011;64051;46.320;48.028;2022-10-16T05:33:59;6.07;;;3.33;;
75470;SDS011;64051;46.320;48.028;2022-10-16T05:36:28;7.32;;;3.20;;
75470;SDS011;64051;46.320;48.028;2022-10-16T05:38:56;8.00;;;3.50;;
75470;SDS011;64051;46.320;48.028;2022-10-16T05:41:22;9.13;;;4.10;;
75470;SDS011;64051;46.320;48.028;2022-10-16T05:43:54;7.07;;;3.25;;
75470;SDS011;64051;46.320;48.028;2022-10-16T05:46:19;6.28;;;2.90;;
75470;SDS011;64051;46.320;48.028;2022-10-16T05:48:46;6.97;;;3.08;;
75470;SDS011;64051;46.320;48.028;2022-10-16T05:51:12;7.05;;;3.22;;
75470;SDS011;64051;46.320;48.028;2022-10-16T05:53:39;5.60;;;2.80;;
75470;SDS011;64051;46.320;48.028;2022-10-16T05:56:09;5.95;;;2.78;;
75470;SDS011;64051;46.320;48.028;2022-10-16T05:58:38;5.50;;;2.53;;
75470;SDS011;64051;46.320;48.028;2022-10-16T06:01:11;6.43;;;2.40;;
75470;SDS011;64051;46.320;48.028;2022-10-16T06:03:47;5.55;;;2.60;;
75470;SDS011;64051;46.320;48.028;2022-10-16T06:06:14;5.85;;;2.60;;
75470;SDS011;64051;46.320;48.028;2022-10-16T06:08:42;6.60;;;2.53;;
75470;SDS011;64051;46.320;48.028;2022-10-16T06:11:14;7.97;;;2.65;;
75470;SDS011;64051;46.320;48.028;2022-10-16T06:13:42;5.78;;;2.63;;
75470;SDS011;64051;46.320;48.028;2022-10-16T06:16:08;5.80;;;2.42;;
75470;SDS011;64051;46.320;48.028;2022-10-16T06:18:35;5.32;;;2.20;;
75470;SDS011;64051;46.320;48.028;2022-10-16T06:21:06;5.03;;;2.45;;
75470;SDS011;64051;46.320;48.028;2022-10-16T06:23:43;4.20;;;2.28;;
75470;SDS011;64051;46.320;48.028;2022-10-16T06:26:13;6.63;;;2.33;;
75470;SDS011;64051;46.320;48.028;2022-10-16T06:28:40;4.70;;;2.15;;
75470;SDS011;64051;46.320;48.028;2022-10-16T06:31:07;4.93;;;2.30;;
75470;SDS011;64051;46.320;48.028;2022-10-16T06:33:37;4.30;;;2.10;;
75470;SDS011;64051;46.320;48.028;2022-10-16T06:36:06;5.28;;;2.05;;
75470;SDS011;64051;46.320;48.028;2022-10-16T06:38:34;5.22;;;2.03;;
75470;SDS011;64051;46.320;48.028;2022-10-16T06:41:04;6.63;;;2.10;;
75470;SDS011;64051;46.320;48.028;2022-10-16T06:43:31;6.53;;;2.47;;
75470;SDS011;64051;46.320;48.028;2022-10-16T06:46:00;5.35;;;2.50;;
75470;SDS011;64051;46.320;48.028;2022-10-16T06:48:34;5.40;;;2.00;;
75470;SDS011;64051;46.320;48.028;2022-10-16T06:51:15;5.68;;;2.15;;
75470;SDS011;64051;46.320;48.028;2022-10-16T06:53:49;4.68;;;2.13;;
75470;SDS011;64051;46.320;48.028;2022-10-16T06:56:18;5.65;;;2.20;;
75470;SDS011;64051;46.320;48.028;2022-10-16T06:58:48;3.92;;;1.95;;
75470;SDS011;64051;46.320;48.028;2022-10-16T07:01:15;5.53;;;1.88;;
75470;SDS011;64051;46.320;48.028;2022-10-16T07:03:46;3.72;;;1.98;;
75470;SDS011;64051;46.320;48.028;2022-10-16T07:06:13;7.20;;;2.47;;
75470;SDS011;64051;46.320;48.028;2022-10-16T07:08:49;7.10;;;2.03;;
75470;SDS011;64051;46.320;48.028;2022-10-16T07:11:19;3.75;;;1.70;;
75470;SDS011;64051;46.320;48.028;2022-10-16T07:13:47;4.57;;;1.90;;
75470;SDS011;64051;46.320;48.028;2022-10-16T07:16:18;3.85;;;1.92;;
75470;SDS011;64051;46.320;48.028;2022-10-16T07:18:48;5.60;;;1.95;;
75470;SDS011;64051;46.320;48.028;2022-10-16T07:21:17;3.95;;;1.88;;
75470;SDS011;64051;46.320;48.028;2022-10-16T07:24:09;3.35;;;1.83;;
75470;SDS011;64051;46.320;48.028;2022-10-16T07:26:38;3.25;;;1.70;;
75470;SDS011;64051;46.320;48.028;2022-10-16T07:29:20;5.32;;;2.10;;
75470;SDS011;64051;46.320;48.028;2022-10-16T07:31:50;4.93;;;1.90;;
75470;SDS011;64051;46.320;48.028;2022-10-16T07:34:22;2.88;;;1.70;;
75470;SDS011;64051;46.320;48.028;2022-10-16T07:36:52;5.07;;;2.20;;
75470;SDS011;64051;46.320;48.028;2022-10-16T07:39:18;4.70;;;1.95;;
75470;SDS011;64051;46.320;48.028;2022-10-16T07:41:46;3.80;;;1.77;;
75470;SDS011;64051;46.320;48.028;2022-10-16T07:44:15;3.92;;;1.90;;
75470;SDS011;64051;46.320;48.028;2022-10-16T07:46:41;5.28;;;2.10;;
75470;SDS011;64051;46.320;48.028;2022-10-16T07:49:08;4.95;;;1.90;;
75470;SDS011;64051;46.320;48.028;2022-10-16T07:51:34;3.35;;;1.80;;
75470;SDS011;64051;46.320;48.028;2022-10-16T07:54:07;4.63;;;1.67;;
75470;SDS011;64051;46.320;48.028;2022-10-16T07:56:50;3.92;;;1.65;;
75470;SDS011;64051;46.320;48.028;2022-10-16T07:59:16;4.15;;;1.70;;
75470;SDS011;64051;46.320;48.028;2022-10-16T08:01:42;4.00;;;1.60;;
75470;SDS011;64051;46.320;48.028;2022-10-16T08:04:19;3.30;;;1.65;;
75470;SDS011;64051;46.320;48.028;2022-10-16T08:06:48;2.70;;;1.70;;
75470;SDS011;64051;46.320;48.028;2022-10-16T08:09:14;3.33;;;1.70;;
75470;SDS011;64051;46.320;48.028;2022-10-16T08:11:43;3.38;;;1.73;;
75470;SDS011;64051;46.320;48.028;2022-10-16T08:14:09;4.93;;;1.55;;
75470;SDS011;64051;46.320;48.028;2022-10-16T08:16:35;5.38;;;1.70;;
75470;SDS011;64051;46.320;48.028;2022-10-16T08:19:04;2.58;;;1.35;;
75470;SDS011;64051;46.320;48.028;2022-10-16T08:21:30;3.60;;;1.88;;
75470;SDS011;64051;46.320;48.028;2022-10-16T08:23:56;5.93;;;1.90;;
75470;SDS011;64051;46.320;48.028;2022-10-16T08:26:22;3.92;;;1.52;;
75470;SDS011;64051;46.320;48.028;2022-10-16T08:28:51;2.72;;;1.52;;
75470;SDS011;64051;46.320;48.028;2022-10-16T08:31:20;2.60;;;1.40;;
75470;SDS011;64051;46.320;48.028;2022-10-16T08:33:55;3.47;;;1.60;;
75470;SDS011;64051;46.320;48.028;2022-10-16T08:36:23;4.72;;;1.80;;
75470;SDS011;64051;46.320;48.028;2022-10-16T08:38:49;4.18;;;1.60;;
75470;SDS011;64051;46.320;48.028;2022-10-16T08:49:27;2.77;;;1.60;;
75470;SDS011;64051;46.320;48.028;2022-10-16T08:51:55;3.60;;;1.65;;
75470;SDS011;64051;46.320;48.028;2022-10-16T08:56:56;3.85;;;1.58;;
75470;SDS011;64051;46.320;48.028;2022-10-16T08:59:26;3.13;;;1.58;;
75470;SDS011;64051;46.320;48.028;2022-10-16T09:01:52;4.90;;;1.70;;
75470;SDS011;64051;46.320;48.028;2022-10-16T09:12:55;3.65;;;1.70;;
75470;SDS011;64051;46.320;48.028;2022-10-16T09:18:52;1.63;;;1.20;;
75470;SDS011;64051;46.320;48.028;2022-10-16T09:21:27;2.30;;;1.40;;
75470;SDS011;64051;46.320;48.028;2022-10-16T09:24:09;2.80;;;1.40;;
75470;SDS011;64051;46.320;48.028;2022-10-16T09:26:49;4.05;;;1.52;;
75470;SDS011;64051;46.320;48.028;2022-10-16T09:29:16;2.95;;;1.40;;
75470;SDS011;64051;46.320;48.028;2022-10-16T09:31:48;2.50;;;1.40;;
75470;SDS011;64051;46.320;48.028;2022-10-16T09:36:53;4.07;;;1.40;;
75470;SDS011;64051;46.320;48.028;2022-10-16T09:39:28;4.20;;;1.48;;
75470;SDS011;64051;46.320;48.028;2022-10-16T09:42:00;2.25;;;1.48;;
75470;SDS011;64051;46.320;48.028;2022-10-16T09:44:29;3.80;;;1.42;;
75470;SDS011;64051;46.320;48.028;2022-10-16T09:47:03;5.22;;;1.60;;
75470;SDS011;64051;46.320;48.028;2022-10-16T09:49:49;4.35;;;1.70;;
75470;SDS011;64051;46.320;48.028;2022-10-16T09:53:16;2.85;;;1.40;;
75470;SDS011;64051;46.320;48.028;2022-10-16T09:56:20;4.70;;;1.60;;
75470;SDS011;64051;46.320;48.028;2022-10-16T09:58:51;3.17;;;1.65;;
75470;SDS011;64051;46.320;48.028;2022-10-16T10:01:18;2.97;;;1.58;;
75470;SDS011;64051;46.320;48.028;2022-10-16T10:03:45;2.90;;;1.40;;
75470;SDS011;64051;46.320;48.028;2022-10-16T10:06:33;3.50;;;1.60;;
75470;SDS011;64051;46.320;48.028;2022-10-16T10:09:20;7.28;;;1.90;;
75470;SDS011;64051;46.320;48.028;2022-10-16T10:12:03;4.82;;;1.70;;
75470;SDS011;64051;46.320;48.028;2022-10-16T10:19:37;3.13;;;1.33;;
75470;SDS011;64051;46.320;48.028;2022-10-16T10:39:15;4.35;;;1.77;;
75470;SDS011;64051;46.320;48.028;2022-10-16T10:44:47;2.03;;;1.35;;
75470;SDS011;64051;46.320;48.028;2022-10-16T10:50:14;2.65;;;1.30;;
75470;SDS011;64051;46.320;48.028;2022-10-16T10:53:02;2.42;;;1.40;;
75470;SDS011;64051;46.320;48.028;2022-10-16T11:04:10;4.25;;;1.48;;
75470;SDS011;64051;46.320;48.028;2022-10-16T11:07:14;5.13;;;1.38;;
75470;SDS011;64051;46.320;48.028;2022-10-16T11:09:49;4.53;;;1.50;;
75470;SDS011;64051;46.320;48.028;2022-10-16T11:12:28;4.40;;;1.50;;
75470;SDS011;64051;46.320;48.028;2022-10-16T11:15:02;3.95;;;1.50;;
75470;SDS011;64051;46.320;48.028;2022-10-16T11:17:41;5.80;;;1.50;;
75470;SDS011;64051;46.320;48.028;2022-10-16T11:20:23;1.85;;;1.35;;
75470;SDS011;64051;46.320;48.028;2022-10-16T11:23:01;3.55;;;1.50;;
75470;SDS011;64051;46.320;48.028;2022-10-16T11:25:40;3.67;;;1.42;;
75470;SDS011;64051;46.320;48.028;2022-10-16T11:28:16;2.88;;;1.35;;
75470;SDS011;64051;46.320;48.028;2022-10-16T11:33:36;2.22;;;1.45;;
75470;SDS011;64051;46.320;48.028;2022-10-16T11:36:11;3.00;;;1.27;;
75470;SDS011;64051;46.320;48.028;2022-10-16T11:41:29;4.68;;;1.70;;
75470;SDS011;64051;46.320;48.028;2022-10-16T11:49:45;2.40;;;1.20;;
75470;SDS011;64051;46.320;48.028;2022-10-16T11:52:30;2.67;;;1.20;;
75470;SDS011;64051;46.320;48.028;2022-10-16T11:58:46;3.08;;;1.42;;
75470;SDS011;64051;46.320;48.028;2022-10-16T12:00:57;4.53;;;1.58;;
75470;SDS011;64051;46.320;48.028;2022-10-16T12:03:53;3.08;;;1.30;;
75470;SDS011;64051;46.320;48.028;2022-10-16T12:09:28;1.63;;;1.20;;
75470;SDS011;64051;46.320;48.028;2022-10-16T12:11:56;4.28;;;1.58;;
75470;SDS011;64051;46.320;48.028;2022-10-16T12:17:04;3.90;;;1.70;;
75470;SDS011;64051;46.320;48.028;2022-10-16T12:20:53;3.88;;;1.83;;
75470;SDS011;64051;46.320;48.028;2022-10-16T12:22:50;2.75;;;1.30;;
75470;SDS011;64051;46.320;48.028;2022-10-16T12:27:58;2.78;;;1.40;;
75470;SDS011;64051;46.320;48.028;2022-10-16T12:30:34;3.13;;;1.58;;
75470;SDS011;64051;46.320;48.028;2022-10-16T12:33:02;2.92;;;1.60;;
75470;SDS011;64051;46.320;48.028;2022-10-16T12:35:44;5.95;;;1.88;;
75470;SDS011;64051;46.320;48.028;2022-10-16T12:38:27;2.30;;;1.30;;
75470;SDS011;64051;46.320;48.028;2022-10-16T12:41:10;4.32;;;1.50;;
75470;SDS011;64051;46.320;48.028;2022-10-16T12:43:44;6.45;;;1.67;;
75470;SDS011;64051;46.320;48.028;2022-10-16T12:48:38;5.45;;;1.80;;
75470;SDS011;64051;46.320;48.028;2022-10-16T12:54:15;2.90;;;1.40;;
75470;SDS011;64051;46.320;48.028;2022-10-16T13:03:05;4.45;;;1.50;;
75470;SDS011;64051;46.320;48.028;2022-10-16T13:06:05;3.00;;;1.58;;
75470;SDS011;64051;46.320;48.028;2022-10-16T13:28:07;3.65;;;1.70;;
75470;SDS011;64051;46.320;48.028;2022-10-16T13:33:15;5.75;;;2.08;;
75470;SDS011;64051;46.320;48.028;2022-10-16T13:35:55;4.60;;;1.88;;
75470;SDS011;64051;46.320;48.028;2022-10-16T13:38:24;5.85;;;2.20;;
75470;SDS011;64051;46.320;48.028;2022-10-16T13:40:58;7.15;;;2.22;;
75470;SDS011;64051;46.320;48.028;2022-10-16T13:43:34;6.85;;;2.35;;
75470;SDS011;64051;46.320;48.028;2022-10-16T13:48:58;6.75;;;2.22;;
75470;SDS011;64051;46.320;48.028;2022-10-16T13:51:32;4.15;;;1.80;;
75470;SDS011;64051;46.320;48.028;2022-10-16T13:54:03;4.95;;;1.98;;
75470;SDS011;64051;46.320;48.028;2022-10-16T13:56:32;3.78;;;1.83;;
75470;SDS011;64051;46.320;48.028;2022-10-16T13:59:05;5.30;;;1.90;;
75470;SDS011;64051;46.320;48.028;2022-10-16T14:01:49;7.30;;;2.20;;
75470;SDS011;64051;46.320;48.028;2022-10-16T14:04:22;6.00;;;1.98;;
75470;SDS011;64051;46.320;48.028;2022-10-16T14:06:49;7.88;;;2.20;;
75470;SDS011;64051;46.320;48.028;2022-10-16T14:11:49;7.82;;;3.08;;
75470;SDS011;64051;46.320;48.028;2022-10-16T14:14:23;9.23;;;3.58;;
75470;SDS011;64051;46.320;48.028;2022-10-16T14:16:49;8.45;;;3.05;;
75470;SDS011;64051;46.320;48.028;2022-10-16T14:19:22;7.10;;;2.92;;
75470;SDS011;64051;46.320;48.028;2022-10-16T14:21:55;6.88;;;2.55;;
75470;SDS011;64051;46.320;48.028;2022-10-16T14:24:34;8.48;;;3.33;;
75470;SDS011;64051;46.320;48.028;2022-10-16T14:27:28;9.80;;;3.08;;
75470;SDS011;64051;46.320;48.028;2022-10-16T14:32:58;8.40;;;3.60;;
75470;SDS011;64051;46.320;48.028;2022-10-16T14:35:37;10.88;;;3.42;;
75470;SDS011;64051;46.320;48.028;2022-10-16T14:38:18;7.28;;;2.90;;
75470;SDS011;64051;46.320;48.028;2022-10-16T14:40:46;10.45;;;3.35;;
75470;SDS011;64051;46.320;48.028;2022-10-16T14:43:14;8.93;;;3.00;;
75470;SDS011;64051;46.320;48.028;2022-10-16T14:45:59;8.55;;;3.50;;
75470;SDS011;64051;46.320;48.028;2022-10-16T14:48:29;7.45;;;3.13;;
75470;SDS011;64051;46.320;48.028;2022-10-16T14:50:58;10.00;;;3.10;;
75470;SDS011;64051;46.320;48.028;2022-10-16T14:53:24;7.55;;;3.33;;
75470;SDS011;64051;46.320;48.028;2022-10-16T14:55:49;7.07;;;3.15;;
75470;SDS011;64051;46.320;48.028;2022-10-16T14:58:21;8.93;;;3.67;;
75470;SDS011;64051;46.320;48.028;2022-10-16T15:00:48;10.10;;;3.92;;
75470;SDS011;64051;46.320;48.028;2022-10-16T15:03:17;10.10;;;3.58;;
75470;SDS011;64051;46.320;48.028;2022-10-16T15:05:58;14.75;;;3.72;;
75470;SDS011;64051;46.320;48.028;2022-10-16T15:08:27;7.65;;;3.33;;
75470;SDS011;64051;46.320;48.028;2022-10-16T15:10:53;10.50;;;3.65;;
75470;SDS011;64051;46.320;48.028;2022-10-16T15:13:25;11.50;;;3.10;;
75470;SDS011;64051;46.320;48.028;2022-10-16T15:15:51;8.25;;;3.17;;
75470;SDS011;64051;46.320;48.028;2022-10-16T15:18:24;10.20;;;3.25;;
75470;SDS011;64051;46.320;48.028;2022-10-16T15:20:50;7.97;;;3.15;;
75470;SDS011;64051;46.320;48.028;2022-10-16T15:23:22;11.38;;;3.25;;
75470;SDS011;64051;46.320;48.028;2022-10-16T15:25:57;8.68;;;3.00;;
75470;SDS011;64051;46.320;48.028;2022-10-16T15:28:26;7.90;;;2.95;;
75470;SDS011;64051;46.320;48.028;2022-10-16T15:30:57;6.47;;;2.67;;
75470;SDS011;64051;46.320;48.028;2022-10-16T15:33:35;8.75;;;3.03;;
75470;SDS011;64051;46.320;48.028;2022-10-16T15:36:02;9.23;;;2.90;;
75470;SDS011;64051;46.320;48.028;2022-10-16T15:38:35;7.30;;;2.80;;
75470;SDS011;64051;46.320;48.028;2022-10-16T15:41:04;7.80;;;3.03;;
75470;SDS011;64051;46.320;48.028;2022-10-16T15:43:33;6.25;;;2.80;;
75470;SDS011;64051;46.320;48.028;2022-10-16T15:46:11;7.07;;;2.67;;
75470;SDS011;64051;46.320;48.028;2022-10-16T15:48:49;9.45;;;2.95;;
75470;SDS011;64051;46.320;48.028;2022-10-16T15:51:25;7.85;;;3.20;;
75470;SDS011;64051;46.320;48.028;2022-10-16T15:54:17;8.60;;;2.70;;
75470;SDS011;64051;46.320;48.028;2022-10-16T15:56:59;6.55;;;3.00;;
75470;SDS011;64051;46.320;48.028;2022-10-16T15:59:34;6.93;;;2.88;;
75470;SDS011;64051;46.320;48.028;2022-10-16T16:02:03;6.28;;;2.60;;
75470;SDS011;64051;46.320;48.028;2022-10-16T16:04:32;7.25;;;2.90;;
75470;SDS011;64051;46.320;48.028;2022-10-16T16:07:00;6.32;;;2.60;;
75470;SDS011;64051;46.320;48.028;2022-10-16T16:09:30;5.57;;;2.30;;
75470;SDS011;64051;46.320;48.028;2022-10-16T16:12:07;6.25;;;2.30;;
75470;SDS011;64051;46.320;48.028;2022-10-16T16:14:39;7.88;;;2.47;;
75470;SDS011;64051;46.320;48.028;2022-10-16T16:17:17;5.15;;;2.30;;
75470;SDS011;64051;46.320;48.028;2022-10-16T16:19:52;10.15;;;4.50;;
75470;SDS011;64051;46.320;48.028;2022-10-16T16:22:24;20.80;;;8.68;;
75470;SDS011;64051;46.320;48.028;2022-10-16T16:24:59;13.10;;;5.82;;
75470;SDS011;64051;46.320;48.028;2022-10-16T16:27:28;11.30;;;5.50;;
75470;SDS011;64051;46.320;48.028;2022-10-16T16:30:05;15.82;;;5.97;;
75470;SDS011;64051;46.320;48.028;2022-10-16T16:32:35;11.18;;;5.85;;
75470;SDS011;64051;46.320;48.028;2022-10-16T16:35:10;11.77;;;5.93;;
75470;SDS011;64051;46.320;48.028;2022-10-16T16:37:39;10.95;;;4.55;;
75470;SDS011;64051;46.320;48.028;2022-10-16T16:40:08;9.18;;;3.42;;
75470;SDS011;64051;46.320;48.028;2022-10-16T16:42:39;9.48;;;3.83;;
75470;SDS011;64051;46.320;48.028;2022-10-16T16:45:24;8.45;;;3.60;;
75470;SDS011;64051;46.320;48.028;2022-10-16T16:48:01;7.70;;;3.03;;
75470;SDS011;64051;46.320;48.028;2022-10-16T16:50:27;7.30;;;2.97;;
75470;SDS011;64051;46.320;48.028;2022-10-16T16:52:59;9.70;;;3.42;;
75470;SDS011;64051;46.320;48.028;2022-10-16T16:55:38;10.68;;;3.50;;
75470;SDS011;64051;46.320;48.028;2022-10-16T16:58:10;7.05;;;2.83;;
75470;SDS011;64051;46.320;48.028;2022-10-16T17:00:45;5.90;;;2.65;;
75470;SDS011;64051;46.320;48.028;2022-10-16T17:03:17;8.32;;;3.20;;
75470;SDS011;64051;46.320;48.028;2022-10-16T17:05:57;10.65;;;3.83;;
75470;SDS011;64051;46.320;48.028;2022-10-16T17:08:42;9.02;;;4.03;;
75470;SDS011;64051;46.320;48.028;2022-10-16T17:14:02;8.68;;;3.92;;
75470;SDS011;64051;46.320;48.028;2022-10-16T17:16:38;10.27;;;3.80;;
75470;SDS011;64051;46.320;48.028;2022-10-16T17:19:17;8.35;;;3.35;;
75470;SDS011;64051;46.320;48.028;2022-10-16T17:21:48;9.50;;;3.80;;
75470;SDS011;64051;46.320;48.028;2022-10-16T17:24:14;11.48;;;4.13;;
75470;SDS011;64051;46.320;48.028;2022-10-16T17:26:47;9.60;;;3.92;;
75470;SDS011;64051;46.320;48.028;2022-10-16T17:29:17;7.38;;;3.88;;
75470;SDS011;64051;46.320;48.028;2022-10-16T17:31:44;10.20;;;3.78;;